Marble, Pennsylvania
Current Conditions -  °F | °C
As of 5:15 AM on Tuesday 27 Jan 2015 (Local Time) from KFKL Reporting Station
Overcast Overcast  
Wind Chill:   Ceiling: 800
Heat Index: 16°   Visibility: 10mi
Dew Point: 10°   Wind: 5mph
Humidity: 79%   Direction: 320°NW
Pressure: 29.83"   Gusts: NA
Location:  41.34°N, 79.44°W
Report Text: KFKL 271015Z AUTO 32004KT 10SM OVC008 M09/M12 A2983 RMK AO1
Loading
Personal Weather Stations






























Interactive Weather Map New forecast layout! Learn more

10-Day Weather Forecast

Advertisements
Track Severe Weather on mobile